sensor_id;sensor_type;location;lat;lon;timestamp;temperature;humidity
33269;DHT22;19640;50.944;5.260;2023-04-24T00:00:08;9.90;99.90
33269;DHT22;19640;50.944;5.260;2023-04-24T00:02:35;10.10;99.90
33269;DHT22;19640;50.944;5.260;2023-04-24T00:05:07;10.00;99.90
33269;DHT22;19640;50.944;5.260;2023-04-24T00:07:33;10.00;99.90
33269;DHT22;19640;50.944;5.260;2023-04-24T00:09:59;10.00;99.90
33269;DHT22;19640;50.944;5.260;2023-04-24T00:12:26;10.10;99.90
33269;DHT22;19640;50.944;5.260;2023-04-24T00:14:52;10.10;99.90
33269;DHT22;19640;50.944;5.260;2023-04-24T00:17:18;10.00;99.90
33269;DHT22;19640;50.944;5.260;2023-04-24T00:19:46;10.00;99.90
33269;DHT22;19640;50.944;5.260;2023-04-24T00:22:12;10.10;99.90
33269;DHT22;19640;50.944;5.260;2023-04-24T00:24:39;10.20;99.90
33269;DHT22;19640;50.944;5.260;2023-04-24T00:27:04;10.20;99.90
33269;DHT22;19640;50.944;5.260;2023-04-24T00:29:30;10.20;99.90
33269;DHT22;19640;50.944;5.260;2023-04-24T00:31:56;10.10;99.90
33269;DHT22;19640;50.944;5.260;2023-04-24T00:34:21;10.20;99.90
33269;DHT22;19640;50.944;5.260;2023-04-24T00:36:47;10.20;99.90
33269;DHT22;19640;50.944;5.260;2023-04-24T00:39:15;10.10;99.90
33269;DHT22;19640;50.944;5.260;2023-04-24T00:41:41;10.10;99.90
33269;DHT22;19640;50.944;5.260;2023-04-24T00:44:07;10.10;99.90
33269;DHT22;19640;50.944;5.260;2023-04-24T00:46:32;10.10;99.90
33269;DHT22;19640;50.944;5.260;2023-04-24T00:48:59;10.20;99.90
33269;DHT22;19640;50.944;5.260;2023-04-24T00:51:25;10.10;99.90
33269;DHT22;19640;50.944;5.260;2023-04-24T00:53:50;10.10;99.90
33269;DHT22;19640;50.944;5.260;2023-04-24T00:56:17;10.00;99.90
33269;DHT22;19640;50.944;5.260;2023-04-24T00:58:44;10.00;99.90
33269;DHT22;19640;50.944;5.260;2023-04-24T01:01:10;10.30;99.90
33269;DHT22;19640;50.944;5.260;2023-04-24T01:03:37;10.20;99.90
33269;DHT22;19640;50.944;5.260;2023-04-24T01:06:03;10.10;99.90
33269;DHT22;19640;50.944;5.260;2023-04-24T01:08:30;10.10;99.90
33269;DHT22;19640;50.944;5.260;2023-04-24T01:10:57;10.20;99.90
33269;DHT22;19640;50.944;5.260;2023-04-24T01:13:23;10.10;99.90
33269;DHT22;19640;50.944;5.260;2023-04-24T01:15:49;10.10;99.90
33269;DHT22;19640;50.944;5.260;2023-04-24T01:18:15;10.20;99.90
33269;DHT22;19640;50.944;5.260;2023-04-24T01:20:42;10.10;99.90
33269;DHT22;19640;50.944;5.260;2023-04-24T01:23:09;10.00;99.90
33269;DHT22;19640;50.944;5.260;2023-04-24T01:25:36;10.00;99.90
33269;DHT22;19640;50.944;5.260;2023-04-24T01:28:02;10.00;99.90
33269;DHT22;19640;50.944;5.260;2023-04-24T01:30:29;10.00;99.90
33269;DHT22;19640;50.944;5.260;2023-04-24T01:32:55;9.90;99.90
33269;DHT22;19640;50.944;5.260;2023-04-24T01:35:21;9.90;99.90
33269;DHT22;19640;50.944;5.260;2023-04-24T01:37:47;9.90;99.90
33269;DHT22;19640;50.944;5.260;2023-04-24T01:40:13;10.00;99.90
33269;DHT22;19640;50.944;5.260;2023-04-24T01:42:41;9.80;99.90
33269;DHT22;19640;50.944;5.260;2023-04-24T01:45:09;9.90;99.90
33269;DHT22;19640;50.944;5.260;2023-04-24T01:47:35;9.70;99.90
33269;DHT22;19640;50.944;5.260;2023-04-24T01:50:02;9.90;99.90
33269;DHT22;19640;50.944;5.260;2023-04-24T01:52:27;10.10;99.90
33269;DHT22;19640;50.944;5.260;2023-04-24T01:54:56;10.00;99.90
33269;DHT22;19640;50.944;5.260;2023-04-24T01:57:24;9.90;99.90
33269;DHT22;19640;50.944;5.260;2023-04-24T01:59:51;9.90;99.90
33269;DHT22;19640;50.944;5.260;2023-04-24T02:02:17;9.90;99.90
33269;DHT22;19640;50.944;5.260;2023-04-24T02:04:43;9.80;99.90
33269;DHT22;19640;50.944;5.260;2023-04-24T02:07:09;10.00;99.90
33269;DHT22;19640;50.944;5.260;2023-04-24T02:09:34;9.90;99.90
33269;DHT22;19640;50.944;5.260;2023-04-24T02:12:00;10.00;99.90
33269;DHT22;19640;50.944;5.260;2023-04-24T02:14:26;9.80;99.90
33269;DHT22;19640;50.944;5.260;2023-04-24T02:16:51;9.80;99.90
33269;DHT22;19640;50.944;5.260;2023-04-24T02:19:18;9.80;99.90
33269;DHT22;19640;50.944;5.260;2023-04-24T02:21:44;9.60;99.90
33269;DHT22;19640;50.944;5.260;2023-04-24T02:24:10;9.70;99.90
33269;DHT22;19640;50.944;5.260;2023-04-24T02:26:36;9.70;99.90
33269;DHT22;19640;50.944;5.260;2023-04-24T02:29:01;9.60;99.90
33269;DHT22;19640;50.944;5.260;2023-04-24T02:31:27;9.50;99.90
33269;DHT22;19640;50.944;5.260;2023-04-24T02:33:53;9.60;99.90
33269;DHT22;19640;50.944;5.260;2023-04-24T02:36:19;9.60;99.90
33269;DHT22;19640;50.944;5.260;2023-04-24T02:38:44;9.60;99.90
33269;DHT22;19640;50.944;5.260;2023-04-24T02:41:10;9.50;99.90
33269;DHT22;19640;50.944;5.260;2023-04-24T02:43:36;9.60;99.90
33269;DHT22;19640;50.944;5.260;2023-04-24T02:46:02;9.50;99.90
33269;DHT22;19640;50.944;5.260;2023-04-24T02:48:28;9.40;99.90
33269;DHT22;19640;50.944;5.260;2023-04-24T02:50:54;9.40;99.90
33269;DHT22;19640;50.944;5.260;2023-04-24T02:53:20;9.40;99.90
33269;DHT22;19640;50.944;5.260;2023-04-24T02:55:45;9.40;99.90
33269;DHT22;19640;50.944;5.260;2023-04-24T02:58:11;9.20;99.90
33269;DHT22;19640;50.944;5.260;2023-04-24T03:00:38;9.30;99.90
33269;DHT22;19640;50.944;5.260;2023-04-24T03:03:05;9.30;99.90
33269;DHT22;19640;50.944;5.260;2023-04-24T03:05:31;9.30;99.90
33269;DHT22;19640;50.944;5.260;2023-04-24T03:07:57;9.20;99.90
33269;DHT22;19640;50.944;5.260;2023-04-24T03:10:22;9.20;99.90
33269;DHT22;19640;50.944;5.260;2023-04-24T03:12:48;9.30;99.90
33269;DHT22;19640;50.944;5.260;2023-04-24T03:15:14;9.30;99.90
33269;DHT22;19640;50.944;5.260;2023-04-24T03:17:40;9.20;99.90
33269;DHT22;19640;50.944;5.260;2023-04-24T03:20:08;9.40;99.90
33269;DHT22;19640;50.944;5.260;2023-04-24T03:22:34;9.40;99.90
33269;DHT22;19640;50.944;5.260;2023-04-24T03:25:00;9.40;99.90
33269;DHT22;19640;50.944;5.260;2023-04-24T03:27:26;9.30;99.90
33269;DHT22;19640;50.944;5.260;2023-04-24T03:29:52;9.30;99.90
33269;DHT22;19640;50.944;5.260;2023-04-24T03:32:21;9.30;99.90
33269;DHT22;19640;50.944;5.260;2023-04-24T03:34:50;9.20;99.90
33269;DHT22;19640;50.944;5.260;2023-04-24T03:37:16;9.20;99.90
33269;DHT22;19640;50.944;5.260;2023-04-24T03:39:43;8.90;99.90
33269;DHT22;19640;50.944;5.260;2023-04-24T03:42:08;9.00;99.90
33269;DHT22;19640;50.944;5.260;2023-04-24T03:44:35;9.10;99.90
33269;DHT22;19640;50.944;5.260;2023-04-24T03:47:01;8.90;99.90
33269;DHT22;19640;50.944;5.260;2023-04-24T03:49:27;9.10;99.90
33269;DHT22;19640;50.944;5.260;2023-04-24T03:51:53;9.10;99.90
33269;DHT22;19640;50.944;5.260;2023-04-24T03:54:19;9.00;99.90
33269;DHT22;19640;50.944;5.260;2023-04-24T03:56:45;9.00;99.90
33269;DHT22;19640;50.944;5.260;2023-04-24T03:59:11;9.00;99.90
33269;DHT22;19640;50.944;5.260;2023-04-24T04:01:37;9.00;99.90
33269;DHT22;19640;50.944;5.260;2023-04-24T04:04:06;8.90;99.90
33269;DHT22;19640;50.944;5.260;2023-04-24T04:06:31;9.00;99.90
33269;DHT22;19640;50.944;5.260;2023-04-24T04:08:58;8.90;99.90
33269;DHT22;19640;50.944;5.260;2023-04-24T04:11:24;9.00;99.90
33269;DHT22;19640;50.944;5.260;2023-04-24T04:13:49;9.10;99.90
33269;DHT22;19640;50.944;5.260;2023-04-24T04:16:16;9.20;99.90
33269;DHT22;19640;50.944;5.260;2023-04-24T04:18:44;8.90;99.90
33269;DHT22;19640;50.944;5.260;2023-04-24T04:21:11;8.90;99.90
33269;DHT22;19640;50.944;5.260;2023-04-24T04:23:36;8.90;99.90
33269;DHT22;19640;50.944;5.260;2023-04-24T04:26:03;8.90;99.90
33269;DHT22;19640;50.944;5.260;2023-04-24T04:28:29;8.90;99.90
33269;DHT22;19640;50.944;5.260;2023-04-24T04:30:56;8.80;99.90
33269;DHT22;19640;50.944;5.260;2023-04-24T04:33:23;8.90;99.90
33269;DHT22;19640;50.944;5.260;2023-04-24T04:35:49;8.80;99.90
33269;DHT22;19640;50.944;5.260;2023-04-24T04:38:20;8.70;99.90
33269;DHT22;19640;50.944;5.260;2023-04-24T04:40:47;8.80;99.90
33269;DHT22;19640;50.944;5.260;2023-04-24T04:43:13;8.80;99.90
33269;DHT22;19640;50.944;5.260;2023-04-24T04:45:40;8.80;99.90
33269;DHT22;19640;50.944;5.260;2023-04-24T04:48:08;8.80;99.90
33269;DHT22;19640;50.944;5.260;2023-04-24T04:50:35;8.80;99.90
33269;DHT22;19640;50.944;5.260;2023-04-24T04:53:00;8.80;99.90
33269;DHT22;19640;50.944;5.260;2023-04-24T04:55:26;8.80;99.90
33269;DHT22;19640;50.944;5.260;2023-04-24T04:57:52;8.70;99.90
33269;DHT22;19640;50.944;5.260;2023-04-24T05:00:18;8.70;99.90
33269;DHT22;19640;50.944;5.260;2023-04-24T05:02:44;8.90;99.90
33269;DHT22;19640;50.944;5.260;2023-04-24T05:05:10;9.10;99.90
33269;DHT22;19640;50.944;5.260;2023-04-24T05:07:36;9.10;99.90
33269;DHT22;19640;50.944;5.260;2023-04-24T05:10:02;8.90;99.90
33269;DHT22;19640;50.944;5.260;2023-04-24T05:12:28;8.80;99.90
33269;DHT22;19640;50.944;5.260;2023-04-24T05:14:53;9.00;99.90
33269;DHT22;19640;50.944;5.260;2023-04-24T05:17:19;9.00;99.90
33269;DHT22;19640;50.944;5.260;2023-04-24T05:19:45;8.90;99.90
33269;DHT22;19640;50.944;5.260;2023-04-24T05:22:11;9.10;99.90
33269;DHT22;19640;50.944;5.260;2023-04-24T05:24:37;9.20;99.90
33269;DHT22;19640;50.944;5.260;2023-04-24T05:27:03;9.30;99.90
33269;DHT22;19640;50.944;5.260;2023-04-24T05:29:32;9.40;99.90
33269;DHT22;19640;50.944;5.260;2023-04-24T05:31:59;9.30;99.90
33269;DHT22;19640;50.944;5.260;2023-04-24T05:34:25;9.20;99.90
33269;DHT22;19640;50.944;5.260;2023-04-24T05:36:50;9.30;99.90
33269;DHT22;19640;50.944;5.260;2023-04-24T05:39:16;9.20;99.90
33269;DHT22;19640;50.944;5.260;2023-04-24T05:41:43;9.20;99.90
33269;DHT22;19640;50.944;5.260;2023-04-24T05:44:09;9.30;99.90
33269;DHT22;19640;50.944;5.260;2023-04-24T05:46:34;9.30;99.90
33269;DHT22;19640;50.944;5.260;2023-04-24T05:49:00;9.20;99.90
33269;DHT22;19640;50.944;5.260;2023-04-24T05:51:26;9.10;99.90
33269;DHT22;19640;50.944;5.260;2023-04-24T05:53:52;9.00;99.90
33269;DHT22;19640;50.944;5.260;2023-04-24T05:56:18;8.90;99.90
33269;DHT22;19640;50.944;5.260;2023-04-24T05:58:45;8.90;99.90
33269;DHT22;19640;50.944;5.260;2023-04-24T06:01:11;8.90;99.90
33269;DHT22;19640;50.944;5.260;2023-04-24T06:03:38;8.80;99.90
33269;DHT22;19640;50.944;5.260;2023-04-24T06:06:06;8.80;99.90
33269;DHT22;19640;50.944;5.260;2023-04-24T06:08:31;8.80;99.90
33269;DHT22;19640;50.944;5.260;2023-04-24T06:10:58;8.80;99.90
33269;DHT22;19640;50.944;5.260;2023-04-24T06:13:23;8.80;99.90
33269;DHT22;19640;50.944;5.260;2023-04-24T06:15:50;8.80;99.90
33269;DHT22;19640;50.944;5.260;2023-04-24T06:18:16;8.80;99.90
33269;DHT22;19640;50.944;5.260;2023-04-24T06:20:42;8.70;99.90
33269;DHT22;19640;50.944;5.260;2023-04-24T06:23:07;8.70;99.90
33269;DHT22;19640;50.944;5.260;2023-04-24T06:25:33;8.70;99.90
33269;DHT22;19640;50.944;5.260;2023-04-24T06:27:59;8.70;99.90
33269;DHT22;19640;50.944;5.260;2023-04-24T06:30:25;8.60;99.90
33269;DHT22;19640;50.944;5.260;2023-04-24T06:32:51;8.60;99.90
33269;DHT22;19640;50.944;5.260;2023-04-24T06:35:16;8.60;99.90
33269;DHT22;19640;50.944;5.260;2023-04-24T06:37:42;8.50;99.90
33269;DHT22;19640;50.944;5.260;2023-04-24T06:40:09;8.50;99.90
33269;DHT22;19640;50.944;5.260;2023-04-24T06:42:35;8.40;99.90
33269;DHT22;19640;50.944;5.260;2023-04-24T06:45:01;8.40;99.90
33269;DHT22;19640;50.944;5.260;2023-04-24T06:47:27;8.40;99.90
33269;DHT22;19640;50.944;5.260;2023-04-24T06:49:53;8.50;99.90
33269;DHT22;19640;50.944;5.260;2023-04-24T06:52:19;8.60;99.90
33269;DHT22;19640;50.944;5.260;2023-04-24T06:54:44;8.50;99.90
33269;DHT22;19640;50.944;5.260;2023-04-24T06:57:10;8.60;99.90
33269;DHT22;19640;50.944;5.260;2023-04-24T06:59:37;8.70;99.90
33269;DHT22;19640;50.944;5.260;2023-04-24T07:02:03;8.70;99.90
33269;DHT22;19640;50.944;5.260;2023-04-24T07:04:29;8.70;99.90
33269;DHT22;19640;50.944;5.260;2023-04-24T07:06:55;8.70;99.90
33269;DHT22;19640;50.944;5.260;2023-04-24T07:09:22;8.80;99.90
33269;DHT22;19640;50.944;5.260;2023-04-24T07:11:49;8.90;99.90
33269;DHT22;19640;50.944;5.260;2023-04-24T07:14:15;9.00;99.90
33269;DHT22;19640;50.944;5.260;2023-04-24T07:16:42;9.10;99.90
33269;DHT22;19640;50.944;5.260;2023-04-24T07:19:08;9.20;99.90
33269;DHT22;19640;50.944;5.260;2023-04-24T07:21:34;9.20;99.90
33269;DHT22;19640;50.944;5.260;2023-04-24T07:24:00;9.20;99.90
33269;DHT22;19640;50.944;5.260;2023-04-24T07:26:27;9.20;99.90
33269;DHT22;19640;50.944;5.260;2023-04-24T07:28:53;9.30;99.90
33269;DHT22;19640;50.944;5.260;2023-04-24T07:31:19;9.30;99.90
33269;DHT22;19640;50.944;5.260;2023-04-24T07:33:45;9.20;99.90
33269;DHT22;19640;50.944;5.260;2023-04-24T07:36:11;9.20;99.90
33269;DHT22;19640;50.944;5.260;2023-04-24T07:38:44;9.20;99.90
33269;DHT22;19640;50.944;5.260;2023-04-24T07:41:10;9.30;99.90
33269;DHT22;19640;50.944;5.260;2023-04-24T07:43:36;9.40;99.90
33269;DHT22;19640;50.944;5.260;2023-04-24T07:46:01;9.20;99.90
33269;DHT22;19640;50.944;5.260;2023-04-24T07:48:27;9.20;99.90
33269;DHT22;19640;50.944;5.260;2023-04-24T07:50:53;9.10;99.90
33269;DHT22;19640;50.944;5.260;2023-04-24T07:53:19;9.00;99.90
33269;DHT22;19640;50.944;5.260;2023-04-24T07:55:45;9.00;99.90
33269;DHT22;19640;50.944;5.260;2023-04-24T07:58:12;9.00;99.90
33269;DHT22;19640;50.944;5.260;2023-04-24T08:00:38;9.00;99.90
33269;DHT22;19640;50.944;5.260;2023-04-24T08:03:03;9.00;99.90
33269;DHT22;19640;50.944;5.260;2023-04-24T08:05:29;8.90;99.90
33269;DHT22;19640;50.944;5.260;2023-04-24T08:07:55;8.90;99.90
33269;DHT22;19640;50.944;5.260;2023-04-24T08:10:25;9.00;99.90
33269;DHT22;19640;50.944;5.260;2023-04-24T08:12:51;9.00;99.90
33269;DHT22;19640;50.944;5.260;2023-04-24T08:15:17;9.00;99.90
33269;DHT22;19640;50.944;5.260;2023-04-24T08:17:43;9.00;99.90
33269;DHT22;19640;50.944;5.260;2023-04-24T08:20:10;9.00;99.90
33269;DHT22;19640;50.944;5.260;2023-04-24T08:22:42;9.10;99.90
33269;DHT22;19640;50.944;5.260;2023-04-24T08:25:09;9.20;99.90
33269;DHT22;19640;50.944;5.260;2023-04-24T08:27:34;9.30;99.90
33269;DHT22;19640;50.944;5.260;2023-04-24T08:30:02;9.40;99.90
33269;DHT22;19640;50.944;5.260;2023-04-24T08:32:28;9.40;99.90
33269;DHT22;19640;50.944;5.260;2023-04-24T08:34:55;9.50;99.90
33269;DHT22;19640;50.944;5.260;2023-04-24T08:37:22;9.50;99.90
33269;DHT22;19640;50.944;5.260;2023-04-24T08:39:51;9.60;99.90
33269;DHT22;19640;50.944;5.260;2023-04-24T08:42:19;9.70;99.90
33269;DHT22;19640;50.944;5.260;2023-04-24T08:44:45;9.80;99.90
33269;DHT22;19640;50.944;5.260;2023-04-24T08:47:11;10.00;99.90
33269;DHT22;19640;50.944;5.260;2023-04-24T08:49:38;10.10;99.90
33269;DHT22;19640;50.944;5.260;2023-04-24T08:52:05;10.20;99.90
33269;DHT22;19640;50.944;5.260;2023-04-24T08:54:32;10.20;99.90
33269;DHT22;19640;50.944;5.260;2023-04-24T08:57:00;10.10;99.90
33269;DHT22;19640;50.944;5.260;2023-04-24T08:59:30;10.00;99.90
33269;DHT22;19640;50.944;5.260;2023-04-24T09:01:56;10.00;99.90
33269;DHT22;19640;50.944;5.260;2023-04-24T09:04:23;10.10;99.90
33269;DHT22;19640;50.944;5.260;2023-04-24T09:06:55;10.00;99.90
33269;DHT22;19640;50.944;5.260;2023-04-24T09:09:22;10.00;99.90
33269;DHT22;19640;50.944;5.260;2023-04-24T09:11:52;9.90;99.90
33269;DHT22;19640;50.944;5.260;2023-04-24T09:14:21;9.60;99.90
33269;DHT22;19640;50.944;5.260;2023-04-24T09:16:47;9.50;99.90
33269;DHT22;19640;50.944;5.260;2023-04-24T09:19:13;9.40;99.90
33269;DHT22;19640;50.944;5.260;2023-04-24T09:21:39;9.40;99.90
33269;DHT22;19640;50.944;5.260;2023-04-24T09:24:14;9.40;99.90
33269;DHT22;19640;50.944;5.260;2023-04-24T09:26:40;9.50;99.90
33269;DHT22;19640;50.944;5.260;2023-04-24T09:29:05;9.60;99.90
33269;DHT22;19640;50.944;5.260;2023-04-24T09:31:32;10.00;99.90
33269;DHT22;19640;50.944;5.260;2023-04-24T09:34:04;10.30;99.90
33269;DHT22;19640;50.944;5.260;2023-04-24T09:36:38;10.50;99.90
33269;DHT22;19640;50.944;5.260;2023-04-24T09:39:11;10.60;99.90
33269;DHT22;19640;50.944;5.260;2023-04-24T09:41:51;10.70;99.90
33269;DHT22;19640;50.944;5.260;2023-04-24T09:46:45;10.90;99.90
33269;DHT22;19640;50.944;5.260;2023-04-24T09:49:13;10.90;99.90
33269;DHT22;19640;50.944;5.260;2023-04-24T09:51:41;11.00;99.90
33269;DHT22;19640;50.944;5.260;2023-04-24T09:54:16;11.00;99.90
33269;DHT22;19640;50.944;5.260;2023-04-24T09:56:50;11.00;99.90
33269;DHT22;19640;50.944;5.260;2023-04-24T09:59:18;10.90;99.90
33269;DHT22;19640;50.944;5.260;2023-04-24T10:01:44;11.10;99.90
33269;DHT22;19640;50.944;5.260;2023-04-24T10:04:23;11.20;99.90
33269;DHT22;19640;50.944;5.260;2023-04-24T10:06:51;11.40;99.90
33269;DHT22;19640;50.944;5.260;2023-04-24T10:09:19;11.50;99.90
33269;DHT22;19640;50.944;5.260;2023-04-24T10:11:47;11.50;99.90
33269;DHT22;19640;50.944;5.260;2023-04-24T10:14:15;11.70;99.90
33269;DHT22;19640;50.944;5.260;2023-04-24T10:16:42;11.60;99.90
33269;DHT22;19640;50.944;5.260;2023-04-24T10:19:09;11.40;99.90
33269;DHT22;19640;50.944;5.260;2023-04-24T10:21:36;11.20;99.90
33269;DHT22;19640;50.944;5.260;2023-04-24T10:24:08;11.00;99.90
33269;DHT22;19640;50.944;5.260;2023-04-24T10:26:35;11.10;99.90
33269;DHT22;19640;50.944;5.260;2023-04-24T10:29:01;11.10;99.90
33269;DHT22;19640;50.944;5.260;2023-04-24T10:31:28;11.20;99.90
33269;DHT22;19640;50.944;5.260;2023-04-24T10:33:56;11.30;99.90
33269;DHT22;19640;50.944;5.260;2023-04-24T10:36:25;11.30;99.90
33269;DHT22;19640;50.944;5.260;2023-04-24T10:38:53;11.40;99.90
33269;DHT22;19640;50.944;5.260;2023-04-24T10:41:21;11.50;99.90
33269;DHT22;19640;50.944;5.260;2023-04-24T10:44:03;11.40;99.90
33269;DHT22;19640;50.944;5.260;2023-04-24T10:46:30;11.40;99.90
33269;DHT22;19640;50.944;5.260;2023-04-24T10:48:56;11.30;99.90
33269;DHT22;19640;50.944;5.260;2023-04-24T10:51:24;11.30;99.90
33269;DHT22;19640;50.944;5.260;2023-04-24T10:53:50;11.40;99.90
33269;DHT22;19640;50.944;5.260;2023-04-24T10:56:17;11.40;99.90
33269;DHT22;19640;50.944;5.260;2023-04-24T10:58:49;11.40;99.90
33269;DHT22;19640;50.944;5.260;2023-04-24T11:01:31;11.30;99.90
33269;DHT22;19640;50.944;5.260;2023-04-24T11:04:02;11.30;99.90
33269;DHT22;19640;50.944;5.260;2023-04-24T11:06:36;11.30;99.90
33269;DHT22;19640;50.944;5.260;2023-04-24T11:09:07;11.50;99.90
33269;DHT22;19640;50.944;5.260;2023-04-24T11:11:34;11.50;99.90
33269;DHT22;19640;50.944;5.260;2023-04-24T11:14:00;11.30;99.90
33269;DHT22;19640;50.944;5.260;2023-04-24T11:21:47;11.20;99.90
33269;DHT22;19640;50.944;5.260;2023-04-24T11:29:48;11.40;99.90
33269;DHT22;19640;50.944;5.260;2023-04-24T11:37:37;11.90;99.90
33269;DHT22;19640;50.944;5.260;2023-04-24T11:40:04;11.90;99.90
33269;DHT22;19640;50.944;5.260;2023-04-24T11:42:34;12.10;99.90
33269;DHT22;19640;50.944;5.260;2023-04-24T11:45:00;12.10;99.90
33269;DHT22;19640;50.944;5.260;2023-04-24T11:47:31;12.10;99.90
33269;DHT22;19640;50.944;5.260;2023-04-24T11:49:59;12.20;99.90
33269;DHT22;19640;50.944;5.260;2023-04-24T11:52:26;12.00;99.90
33269;DHT22;19640;50.944;5.260;2023-04-24T11:54:52;11.80;99.90
33269;DHT22;19640;50.944;5.260;2023-04-24T11:57:21;11.70;99.90
33269;DHT22;19640;50.944;5.260;2023-04-24T11:59:48;11.80;99.90
33269;DHT22;19640;50.944;5.260;2023-04-24T12:02:23;11.80;99.90
33269;DHT22;19640;50.944;5.260;2023-04-24T12:04:50;11.70;99.90
33269;DHT22;19640;50.944;5.260;2023-04-24T12:07:16;11.80;99.90
33269;DHT22;19640;50.944;5.260;2023-04-24T12:09:48;12.10;99.90
33269;DHT22;19640;50.944;5.260;2023-04-24T12:12:16;12.30;99.90
33269;DHT22;19640;50.944;5.260;2023-04-24T12:14:49;12.20;99.90
33269;DHT22;19640;50.944;5.260;2023-04-24T12:17:16;12.10;99.90
33269;DHT22;19640;50.944;5.260;2023-04-24T12:19:48;12.10;99.90
33269;DHT22;19640;50.944;5.260;2023-04-24T12:22:14;12.20;99.90
33269;DHT22;19640;50.944;5.260;2023-04-24T12:25:16;12.30;99.90
33269;DHT22;19640;50.944;5.260;2023-04-24T12:27:44;12.30;99.90
33269;DHT22;19640;50.944;5.260;2023-04-24T12:30:12;12.30;99.90
33269;DHT22;19640;50.944;5.260;2023-04-24T12:32:45;12.10;99.90
33269;DHT22;19640;50.944;5.260;2023-04-24T12:35:11;12.20;99.90
33269;DHT22;19640;50.944;5.260;2023-04-24T12:37:37;12.20;99.90
33269;DHT22;19640;50.944;5.260;2023-04-24T12:40:07;12.30;99.90
33269;DHT22;19640;50.944;5.260;2023-04-24T12:42:34;12.40;99.90
33269;DHT22;19640;50.944;5.260;2023-04-24T12:45:04;12.80;99.90
33269;DHT22;19640;50.944;5.260;2023-04-24T12:47:31;12.70;99.90
33269;DHT22;19640;50.944;5.260;2023-04-24T12:49:57;12.60;99.90
33269;DHT22;19640;50.944;5.260;2023-04-24T12:52:24;12.20;99.90
33269;DHT22;19640;50.944;5.260;2023-04-24T12:54:52;12.00;99.90
33269;DHT22;19640;50.944;5.260;2023-04-24T12:57:18;11.90;99.90
33269;DHT22;19640;50.944;5.260;2023-04-24T12:59:44;12.00;99.90
33269;DHT22;19640;50.944;5.260;2023-04-24T13:02:11;12.20;99.90
33269;DHT22;19640;50.944;5.260;2023-04-24T13:04:36;12.30;99.90
33269;DHT22;19640;50.944;5.260;2023-04-24T13:07:02;12.40;99.90
33269;DHT22;19640;50.944;5.260;2023-04-24T13:09:28;12.50;99.90
33269;DHT22;19640;50.944;5.260;2023-04-24T13:11:54;12.60;99.90
33269;DHT22;19640;50.944;5.260;2023-04-24T13:14:22;12.70;99.90
33269;DHT22;19640;50.944;5.260;2023-04-24T13:16:47;12.90;99.90
33269;DHT22;19640;50.944;5.260;2023-04-24T13:19:13;13.00;99.90
33269;DHT22;19640;50.944;5.260;2023-04-24T13:21:39;12.90;99.90
33269;DHT22;19640;50.944;5.260;2023-04-24T13:24:05;12.90;99.90
33269;DHT22;19640;50.944;5.260;2023-04-24T13:26:31;12.90;99.90
33269;DHT22;19640;50.944;5.260;2023-04-24T13:28:56;12.70;99.90
33269;DHT22;19640;50.944;5.260;2023-04-24T13:31:22;12.70;99.90
33269;DHT22;19640;50.944;5.260;2023-04-24T13:33:48;12.90;99.90
33269;DHT22;19640;50.944;5.260;2023-04-24T13:36:13;13.00;99.90
33269;DHT22;19640;50.944;5.260;2023-04-24T13:38:39;13.20;99.90
33269;DHT22;19640;50.944;5.260;2023-04-24T13:41:05;13.20;99.90
33269;DHT22;19640;50.944;5.260;2023-04-24T13:43:30;13.10;99.90
33269;DHT22;19640;50.944;5.260;2023-04-24T13:45:56;12.90;99.90
33269;DHT22;19640;50.944;5.260;2023-04-24T13:48:22;13.00;99.90
33269;DHT22;19640;50.944;5.260;2023-04-24T13:50:47;13.00;99.90
33269;DHT22;19640;50.944;5.260;2023-04-24T13:53:15;12.90;99.90
33269;DHT22;19640;50.944;5.260;2023-04-24T13:55:40;13.00;99.90
33269;DHT22;19640;50.944;5.260;2023-04-24T13:58:06;13.00;99.90
33269;DHT22;19640;50.944;5.260;2023-04-24T14:00:33;13.10;99.90
33269;DHT22;19640;50.944;5.260;2023-04-24T14:02:59;13.10;99.90
33269;DHT22;19640;50.944;5.260;2023-04-24T14:05:25;13.10;99.90
33269;DHT22;19640;50.944;5.260;2023-04-24T14:07:51;13.30;99.90
33269;DHT22;19640;50.944;5.260;2023-04-24T14:10:17;13.40;99.90
33269;DHT22;19640;50.944;5.260;2023-04-24T14:12:42;13.40;99.90
33269;DHT22;19640;50.944;5.260;2023-04-24T14:15:08;13.60;99.90
33269;DHT22;19640;50.944;5.260;2023-04-24T14:17:34;13.80;99.90
33269;DHT22;19640;50.944;5.260;2023-04-24T14:20:00;13.80;99.90
33269;DHT22;19640;50.944;5.260;2023-04-24T14:22:26;13.70;99.90
33269;DHT22;19640;50.944;5.260;2023-04-24T14:24:52;13.40;99.90
33269;DHT22;19640;50.944;5.260;2023-04-24T14:27:17;13.10;99.90
33269;DHT22;19640;50.944;5.260;2023-04-24T14:29:43;13.10;99.90
33269;DHT22;19640;50.944;5.260;2023-04-24T14:32:10;13.10;99.90
33269;DHT22;19640;50.944;5.260;2023-04-24T14:34:36;12.90;99.90
33269;DHT22;19640;50.944;5.260;2023-04-24T14:37:02;13.00;99.90
33269;DHT22;19640;50.944;5.260;2023-04-24T14:39:28;13.00;99.90
33269;DHT22;19640;50.944;5.260;2023-04-24T14:41:54;13.20;99.90
33269;DHT22;19640;50.944;5.260;2023-04-24T14:44:20;13.30;99.90
33269;DHT22;19640;50.944;5.260;2023-04-24T14:46:46;13.50;99.90
33269;DHT22;19640;50.944;5.260;2023-04-24T14:49:11;13.30;99.90
33269;DHT22;19640;50.944;5.260;2023-04-24T14:51:38;13.40;99.90
33269;DHT22;19640;50.944;5.260;2023-04-24T14:54:03;13.50;99.90
33269;DHT22;19640;50.944;5.260;2023-04-24T14:56:29;13.50;99.90
33269;DHT22;19640;50.944;5.260;2023-04-24T14:58:55;13.30;99.90
33269;DHT22;19640;50.944;5.260;2023-04-24T15:01:21;13.30;99.90
33269;DHT22;19640;50.944;5.260;2023-04-24T15:03:47;13.10;99.90
33269;DHT22;19640;50.944;5.260;2023-04-24T15:06:12;13.10;99.90
33269;DHT22;19640;50.944;5.260;2023-04-24T15:08:38;13.20;99.90
33269;DHT22;19640;50.944;5.260;2023-04-24T15:11:04;13.20;99.90
33269;DHT22;19640;50.944;5.260;2023-04-24T15:13:30;13.30;99.90
33269;DHT22;19640;50.944;5.260;2023-04-24T15:15:56;13.20;99.90
33269;DHT22;19640;50.944;5.260;2023-04-24T15:18:22;13.10;99.90
33269;DHT22;19640;50.944;5.260;2023-04-24T15:20:47;13.00;99.90
33269;DHT22;19640;50.944;5.260;2023-04-24T15:23:13;13.10;99.90
33269;DHT22;19640;50.944;5.260;2023-04-24T15:25:39;13.20;99.90
33269;DHT22;19640;50.944;5.260;2023-04-24T15:28:05;13.40;99.90
33269;DHT22;19640;50.944;5.260;2023-04-24T15:30:31;13.50;99.90
33269;DHT22;19640;50.944;5.260;2023-04-24T15:32:57;13.20;99.90
33269;DHT22;19640;50.944;5.260;2023-04-24T15:35:23;13.00;99.90
33269;DHT22;19640;50.944;5.260;2023-04-24T15:37:49;13.10;99.90
33269;DHT22;19640;50.944;5.260;2023-04-24T15:40:14;13.00;99.90
33269;DHT22;19640;50.944;5.260;2023-04-24T15:42:42;12.70;99.90
33269;DHT22;19640;50.944;5.260;2023-04-24T15:45:08;12.70;99.90
33269;DHT22;19640;50.944;5.260;2023-04-24T15:47:35;12.60;99.90
33269;DHT22;19640;50.944;5.260;2023-04-24T15:50:01;12.60;99.90
33269;DHT22;19640;50.944;5.260;2023-04-24T15:52:27;12.50;99.90